Time;durP1;ratioP1;P1;durP2;ratioP2;P2;SDS_P1;SDS_P2;PMS_P1;PMS_P2;Temp;Humidity;BMP_temperature;BMP_pressure;BME280_temperature;BME280_humidity;BME280_pressure;Samples;Min_cycle;Max_cycle;Signal;HPM_P1;HPM_P2
2021/11/12 00:12:29;;;;;;;6.25;3.95;;;20.80;42.20;;;;;;5022549;28;20033;-51
2021/11/12 00:14:56;;;;;;;6.15;3.92;;;20.80;42.10;;;;;;5026494;28;20038;-48
2021/11/12 00:17:28;;;;;;;6.43;4.20;;;20.80;42.10;;;;;;5020419;28;20469;-57
2021/11/12 00:19:56;;;;;;;6.80;3.90;;;20.80;42.10;;;;;;5023771;28;20112;-52
2021/11/12 00:22:23;;;;;;;6.35;4.68;;;20.80;42.10;;;;;;5025506;28;20044;-52
2021/11/12 00:24:51;;;;;;;5.97;4.13;;;20.80;42.10;;;;;;5021327;28;20447;-48
2021/11/12 00:27:17;;;;;;;4.75;3.78;;;20.70;42.10;;;;;;5031567;28;20087;-53
2021/11/12 00:29:59;;;;;;;6.03;4.25;;;20.80;42.20;;;;;;5016313;28;20026;-47
2021/11/12 00:42:42;;;;;;;5.57;4.28;;;20.70;42.30;;;;;;5027002;28;20029;-54
2021/11/12 00:45:09;;;;;;;6.75;3.80;;;20.70;42.20;;;;;;5025701;28;20428;-52
2021/11/12 00:55:22;;;;;;;5.47;3.95;;;20.70;42.40;;;;;;5025529;28;20100;-49
2021/11/12 00:57:48;;;;;;;5.80;3.80;;;20.70;42.40;;;;;;5019982;28;20022;-49
2021/11/12 01:00:15;;;;;;;4.55;3.67;;;20.70;42.40;;;;;;5033492;28;20033;-47
2021/11/12 01:02:41;;;;;;;5.18;3.60;;;20.70;42.30;;;;;;5022719;28;20043;-56
2021/11/12 01:05:08;;;;;;;6.45;4.32;;;20.70;42.40;;;;;;5025749;28;20091;-48
2021/11/12 01:07:34;;;;;;;5.18;3.58;;;20.70;42.30;;;;;;5027102;28;20036;-49
2021/11/12 01:10:01;;;;;;;5.88;4.20;;;20.70;42.40;;;;;;5021582;28;20037;-50
2021/11/12 01:12:28;;;;;;;4.85;3.83;;;20.70;42.40;;;;;;5018280;28;20080;-49
2021/11/12 01:14:55;;;;;;;5.80;4.05;;;20.70;42.40;;;;;;5023490;28;20109;-54
2021/11/12 01:17:21;;;;;;;5.82;3.80;;;20.70;42.40;;;;;;5019214;28;20026;-48
2021/11/12 01:19:47;;;;;;;4.90;3.80;;;20.70;42.40;;;;;;5022081;28;20441;-50
2021/11/12 01:22:13;;;;;;;6.22;3.80;;;20.70;42.40;;;;;;5020384;28;20511;-52
2021/11/12 01:24:39;;;;;;;4.53;3.45;;;20.60;42.40;;;;;;5017526;28;20030;-47
2021/11/12 01:27:06;;;;;;;5.05;3.80;;;20.70;42.40;;;;;;5023181;28;20044;-46
2021/11/12 01:29:33;;;;;;;4.63;3.58;;;20.70;42.40;;;;;;5023271;28;20643;-48
2021/11/12 01:34:44;;;;;;;4.57;3.63;;;20.60;42.40;;;;;;5017562;28;20105;-49
2021/11/12 01:37:10;;;;;;;5.50;3.83;;;20.60;42.40;;;;;;5021248;28;20101;-47
2021/11/12 01:39:35;;;;;;;7.28;4.60;;;20.60;42.40;;;;;;5024331;28;20060;-52
2021/11/12 01:42:03;;;;;;;5.35;3.90;;;20.60;42.40;;;;;;5027161;28;20559;-49
2021/11/12 01:44:49;;;;;;;5.25;3.83;;;20.60;42.40;;;;;;5026613;28;20361;-50
2021/11/12 01:49:46;;;;;;;4.85;3.50;;;20.60;42.50;;;;;;5026996;28;20041;-45
2021/11/12 01:52:25;;;;;;;5.70;3.90;;;20.60;42.50;;;;;;5030026;28;21491;-46
2021/11/12 01:54:59;;;;;;;6.28;3.75;;;20.60;42.50;;;;;;5022752;28;20492;-51
2021/11/12 01:59:53;;;;;;;6.75;4.35;;;20.60;42.50;;;;;;5023153;28;20111;-50
2021/11/12 02:02:21;;;;;;;5.28;3.75;;;20.60;42.50;;;;;;5021564;28;20022;-51
2021/11/12 02:04:47;;;;;;;6.82;4.40;;;20.60;42.50;;;;;;5030988;28;20041;-53
2021/11/12 02:07:13;;;;;;;4.57;3.63;;;20.60;42.50;;;;;;5019773;28;20091;-51
2021/11/12 02:09:39;;;;;;;5.28;3.65;;;20.60;42.50;;;;;;5017413;28;20473;-52
2021/11/12 02:12:23;;;;;;;6.25;3.90;;;20.60;42.50;;;;;;5021952;28;20033;-50
2021/11/12 02:14:51;;;;;;;5.20;3.70;;;20.60;43.10;;;;;;5023314;28;20057;-49
2021/11/12 02:17:20;;;;;;;4.68;3.53;;;20.50;42.50;;;;;;5023757;28;20448;-51
2021/11/12 02:19:56;;;;;;;6.00;3.95;;;20.50;42.50;;;;;;5023802;28;20124;-51
2021/11/12 02:22:25;;;;;;;6.72;4.03;;;20.50;42.50;;;;;;5028531;28;20034;-51
2021/11/12 02:24:54;;;;;;;5.55;4.10;;;20.50;42.60;;;;;;5023930;28;20037;-54
2021/11/12 02:27:26;;;;;;;5.57;3.80;;;20.50;42.60;;;;;;5024697;28;20036;-48
2021/11/12 02:29:55;;;;;;;6.18;4.28;;;20.50;42.60;;;;;;5023174;28;20029;-51
2021/11/12 02:32:30;;;;;;;7.25;4.03;;;20.50;42.60;;;;;;5032613;28;20018;-51
2021/11/12 02:34:58;;;;;;;4.95;3.60;;;20.50;42.50;;;;;;5032823;28;20037;-54
2021/11/12 02:37:26;;;;;;;6.25;3.75;;;20.50;42.60;;;;;;5018089;28;20105;-50
2021/11/12 02:39:54;;;;;;;5.70;4.00;;;20.50;42.60;;;;;;5029179;28;20180;-53
2021/11/12 02:42:21;;;;;;;5.65;3.75;;;20.50;42.60;;;;;;5033602;28;20364;-49
2021/11/12 02:44:47;;;;;;;6.93;4.25;;;20.50;42.60;;;;;;5021462;28;20364;-50
2021/11/12 02:47:16;;;;;;;5.15;3.70;;;20.50;42.60;;;;;;5027920;28;20478;-51
2021/11/12 02:49:43;;;;;;;5.68;4.07;;;20.50;42.50;;;;;;5033642;28;20027;-53
2021/11/12 02:52:10;;;;;;;4.85;3.65;;;20.50;42.50;;;;;;5029100;28;20120;-51
2021/11/12 02:54:38;;;;;;;5.65;4.00;;;20.50;42.50;;;;;;5026191;28;20380;-50
2021/11/12 02:57:04;;;;;;;5.20;4.05;;;20.50;42.40;;;;;;5032466;28;20045;-50
2021/11/12 02:59:30;;;;;;;6.40;3.90;;;20.50;42.40;;;;;;5024676;28;20096;-46
2021/11/12 03:02:03;;;;;;;5.55;3.90;;;20.50;42.40;;;;;;5027078;28;20026;-51
2021/11/12 03:04:29;;;;;;;7.93;4.28;;;20.40;42.30;;;;;;5027669;28;20026;-50
2021/11/12 03:06:57;;;;;;;5.88;3.78;;;20.50;42.40;;;;;;5029332;28;20396;-49
2021/11/12 03:09:25;;;;;;;6.15;4.05;;;20.50;42.30;;;;;;5024565;28;20482;-54
2021/11/12 03:11:51;;;;;;;4.95;3.67;;;20.50;42.30;;;;;;5023973;28;20036;-53
2021/11/12 03:14:17;;;;;;;5.53;3.80;;;20.50;42.20;;;;;;5021948;28;20033;-53
2021/11/12 03:16:43;;;;;;;5.22;3.40;;;20.50;42.10;;;;;;5027778;28;20108;-52
2021/11/12 03:19:10;;;;;;;5.53;3.78;;;20.60;42.00;;;;;;5029818;28;20057;-53
2021/11/12 03:21:41;;;;;;;5.38;3.95;;;20.60;41.90;;;;;;5025027;28;20099;-47
2021/11/12 03:24:23;;;;;;;5.22;3.85;;;20.70;41.90;;;;;;5017911;28;20105;-49
2021/11/12 03:29:40;;;;;;;5.22;3.22;;;20.70;41.70;;;;;;5024831;28;20029;-47
2021/11/12 04:07:36;;;;;;;5.40;3.55;;;20.80;41.00;;;;;;5036855;28;20119;-52
2021/11/12 04:17:18;;;;;;;5.53;4.03;;;20.80;41.00;;;;;;5017759;28;19952;-50
2021/11/12 04:49:22;;;;;;;4.35;3.03;;;20.80;40.30;;;;;;5017618;28;20034;-51
2021/11/12 05:10:14;;;;;;;2.92;2.63;;;20.80;39.70;;;;;;5019732;28;20373;-48
2021/11/12 05:13:11;;;;;;;3.97;2.90;;;20.80;39.60;;;;;;5018806;28;20102;-46
2021/11/12 05:33:35;;;;;;;3.92;2.88;;;20.80;40.00;;;;;;4994804;28;20443;-47
2021/11/12 05:56:41;;;;;;;3.25;2.53;;;20.70;38.80;;;;;;5033686;28;20229;-50
2021/11/12 05:59:12;;;;;;;3.00;2.58;;;20.70;38.80;;;;;;5025041;28;20100;-52
2021/11/12 06:01:39;;;;;;;2.85;2.33;;;20.70;38.70;;;;;;5029161;28;20499;-50
2021/11/12 06:04:06;;;;;;;3.38;2.53;;;20.70;38.70;;;;;;5035069;28;20029;-52
2021/11/12 06:06:32;;;;;;;3.22;2.58;;;20.70;38.60;;;;;;5024277;28;20040;-49
2021/11/12 06:08:58;;;;;;;2.85;2.50;;;20.70;38.60;;;;;;5033048;28;20448;-49
2021/11/12 06:11:27;;;;;;;3.70;2.50;;;20.70;38.60;;;;;;5026113;28;20042;-46
2021/11/12 06:13:57;;;;;;;2.90;2.10;;;20.70;38.50;;;;;;5021946;28;20112;-48
2021/11/12 06:16:24;;;;;;;2.78;2.35;;;20.70;38.50;;;;;;5031634;28;20045;-48
2021/11/12 06:18:50;;;;;;;3.53;2.50;;;20.70;38.40;;;;;;5032950;28;20030;-49
2021/11/12 06:21:16;;;;;;;2.95;2.35;;;20.70;38.40;;;;;;5033798;28;20033;-47
2021/11/12 06:23:42;;;;;;;2.92;2.30;;;20.70;38.30;;;;;;5034930;28;20112;-50
2021/11/12 06:26:09;;;;;;;3.13;2.45;;;20.70;38.30;;;;;;5032724;28;20103;-50
2021/11/12 06:28:36;;;;;;;2.90;2.45;;;20.70;38.20;;;;;;5023365;28;20049;-53
2021/11/12 06:31:03;;;;;;;3.65;2.70;;;20.70;38.20;;;;;;5016149;28;20034;-48
2021/11/12 06:33:31;;;;;;;3.90;2.30;;;20.70;38.20;;;;;;5032840;28;20065;-53
2021/11/12 06:35:58;;;;;;;3.55;2.38;;;20.70;38.20;;;;;;5024705;28;20084;-50
2021/11/12 06:38:26;;;;;;;2.95;2.42;;;20.70;38.10;;;;;;5018822;28;20084;-52
2021/11/12 06:40:53;;;;;;;3.25;2.30;;;20.70;38.10;;;;;;5028357;28;20036;-52
2021/11/12 06:43:29;;;;;;;3.28;2.40;;;20.70;38.10;;;;;;5021105;28;20517;-56
2021/11/12 06:51:25;;;;;;;2.88;2.22;;;20.70;38.00;;;;;;5020511;28;20176;-49
2021/11/12 06:53:52;;;;;;;2.55;2.10;;;20.70;37.90;;;;;;5014915;28;20045;-51
2021/11/12 06:56:23;;;;;;;3.03;2.30;;;20.70;37.90;;;;;;5025375;28;20025;-52
2021/11/12 06:58:50;;;;;;;3.25;2.42;;;20.70;37.90;;;;;;5026343;28;20494;-52
2021/11/12 07:01:17;;;;;;;2.33;2.10;;;20.70;37.90;;;;;;5033403;28;20055;-50
2021/11/12 07:03:42;;;;;;;3.35;2.20;;;20.70;37.80;;;;;;5031847;28;20048;-51
2021/11/12 07:06:09;;;;;;;2.53;2.25;;;20.70;37.80;;;;;;5024983;28;20026;-51
2021/11/12 07:08:35;;;;;;;2.75;2.33;;;20.70;37.80;;;;;;5025389;28;20033;-56
2021/11/12 07:11:01;;;;;;;2.92;2.47;;;20.70;37.80;;;;;;5036544;28;20060;-47
2021/11/12 07:13:29;;;;;;;4.05;2.95;;;20.70;37.60;;;;;;5025157;28;20025;-50
2021/11/12 07:15:58;;;;;;;4.78;2.50;;;20.70;37.60;;;;;;5017903;28;20033;-51
2021/11/12 07:18:27;;;;;;;2.72;2.35;;;20.80;38.20;;;;;;5035273;28;20045;-51
2021/11/12 07:20:54;;;;;;;2.75;1.85;;;20.80;37.40;;;;;;5035774;28;20025;-50
2021/11/12 07:23:23;;;;;;;2.42;2.20;;;20.90;37.40;;;;;;5036536;28;20086;-52
2021/11/12 07:25:50;;;;;;;3.20;2.15;;;21.00;37.20;;;;;;5021829;28;20033;-53
2021/11/12 07:28:16;;;;;;;3.00;2.10;;;21.10;37.10;;;;;;5024731;28;20041;-52
2021/11/12 07:30:44;;;;;;;4.28;2.33;;;21.20;37.00;;;;;;5027665;28;20029;-53
2021/11/12 07:33:13;;;;;;;3.58;2.20;;;21.20;36.80;;;;;;5036609;28;20063;-52
2021/11/12 07:35:48;;;;;;;3.22;2.40;;;21.30;36.70;;;;;;5034634;28;20025;-52
2021/11/12 07:38:24;;;;;;;3.25;2.55;;;21.40;36.60;;;;;;5027557;28;20075;-55
2021/11/12 07:44:07;;;;;;;3.70;2.20;;;21.60;36.40;;;;;;5023091;28;20048;-48
2021/11/12 07:48:41;;;;;;;2.40;2.10;;;21.70;36.10;;;;;;5019753;28;20434;-49
2021/11/12 07:51:08;;;;;;;3.55;2.35;;;21.80;36.00;;;;;;5028085;28;20037;-53
2021/11/12 07:53:34;;;;;;;2.72;2.30;;;21.90;36.60;;;;;;5021014;28;20354;-51
2021/11/12 07:56:00;;;;;;;2.22;1.90;;;22.00;35.90;;;;;;5018526;28;20060;-49
2021/11/12 07:58:26;;;;;;;3.47;2.40;;;22.10;35.80;;;;;;5034038;28;20348;-51
2021/11/12 08:00:52;;;;;;;3.13;1.92;;;22.10;35.60;;;;;;5019503;28;20030;-52
2021/11/12 08:03:18;;;;;;;2.53;2.00;;;22.20;35.50;;;;;;5020734;28;20105;-51
2021/11/12 08:05:48;;;;;;;3.00;2.38;;;22.30;35.50;;;;;;5029396;28;20033;-52
2021/11/12 08:08:16;;;;;;;4.70;2.10;;;22.30;35.40;;;;;;5026761;28;20029;-54
2021/11/12 08:10:58;;;;;;;3.28;2.15;;;22.40;35.30;;;;;;5019371;28;20045;-54
2021/11/12 08:13:37;;;;;;;2.88;1.92;;;22.40;35.20;;;;;;5027442;28;20100;-50
2021/11/12 08:18:48;;;;;;;3.22;2.33;;;22.50;35.10;;;;;;5017637;28;20033;-50
2021/11/12 08:21:41;;;;;;;2.38;2.00;;;22.60;35.00;;;;;;5021418;28;20064;-50
2021/11/12 08:24:16;;;;;;;2.75;1.90;;;22.60;35.00;;;;;;5016278;28;20125;-52
2021/11/12 08:27:04;;;;;;;3.05;2.28;;;22.70;34.90;;;;;;5028671;28;20349;-53
2021/11/12 08:29:54;;;;;;;2.93;2.10;;;22.70;34.80;;;;;;5029579;28;20088;-46
2021/11/12 08:32:31;;;;;;;2.80;2.10;;;22.70;34.80;;;;;;5022201;28;20565;-50
2021/11/12 08:35:07;;;;;;;3.08;2.10;;;22.80;34.80;;;;;;5026900;28;20551;-56
2021/11/12 08:42:36;;;;;;;2.92;1.95;;;22.90;34.70;;;;;;5024003;28;20044;-52
2021/11/12 08:45:26;;;;;;;4.00;2.53;;;22.90;34.60;;;;;;5018388;28;20022;-52
2021/11/12 08:47:56;;;;;;;2.40;1.92;;;22.90;34.60;;;;;;5016833;28;20052;-51
2021/11/12 08:50:23;;;;;;;2.42;2.00;;;22.90;34.70;;;;;;5018420;28;20065;-49
2021/11/12 08:52:52;;;;;;;2.90;2.15;;;23.00;34.60;;;;;;5026169;28;20394;-53
2021/11/12 08:55:29;;;;;;;2.60;2.00;;;23.00;34.50;;;;;;5016526;28;20045;-48
2021/11/12 08:57:58;;;;;;;3.20;2.42;;;23.00;34.50;;;;;;5019555;28;20532;-45
2021/11/12 09:00:25;;;;;;;3.63;2.13;;;23.10;34.50;;;;;;5015704;28;20034;-52
2021/11/12 09:02:51;;;;;;;3.60;2.30;;;23.10;34.40;;;;;;5015834;28;20113;-52
2021/11/12 09:05:21;;;;;;;3.45;2.28;;;23.10;34.30;;;;;;5017914;28;20037;-49
2021/11/12 09:07:51;;;;;;;3.38;2.30;;;23.10;34.30;;;;;;5019907;28;20033;-52
2021/11/12 09:10:23;;;;;;;3.28;2.42;;;23.20;34.30;;;;;;5030854;28;20036;-49
2021/11/12 09:12:56;;;;;;;3.45;2.53;;;23.20;34.30;;;;;;5017882;28;20037;-52
2021/11/12 09:15:29;;;;;;;5.45;2.67;;;23.20;34.20;;;;;;5027213;28;20397;-52
2021/11/12 09:17:56;;;;;;;3.45;2.53;;;23.10;34.20;;;;;;5023803;28;20042;-53
2021/11/12 09:20:22;;;;;;;3.72;3.15;;;23.10;34.30;;;;;;5016573;28;20042;-52
2021/11/12 09:22:49;;;;;;;5.20;4.22;;;23.10;34.40;;;;;;5020875;28;20029;-51
2021/11/12 09:25:15;;;;;;;4.72;4.18;;;23.10;34.50;;;;;;5023338;28;20026;-55
2021/11/12 09:27:42;;;;;;;5.60;4.57;;;23.10;34.50;;;;;;5020803;28;20368;-54
2021/11/12 09:30:11;;;;;;;5.20;4.60;;;23.00;34.40;;;;;;5021133;28;20032;-51
2021/11/12 09:32:37;;;;;;;7.50;4.47;;;23.00;34.50;;;;;;5025503;28;20034;-54
2021/11/12 09:35:04;;;;;;;5.22;4.20;;;23.00;34.60;;;;;;5022661;28;20437;-51
2021/11/12 09:37:30;;;;;;;6.25;4.75;;;23.00;34.70;;;;;;5028473;28;20029;-51
2021/11/12 09:39:57;;;;;;;7.60;4.82;;;22.90;34.80;;;;;;5020147;28;20077;-53
2021/11/12 09:42:26;;;;;;;6.05;5.07;;;22.90;34.90;;;;;;5017037;28;20052;-52
2021/11/12 09:44:53;;;;;;;6.55;5.60;;;22.90;35.00;;;;;;5031822;28;20535;-50
2021/11/12 09:47:24;;;;;;;9.02;5.85;;;22.80;35.00;;;;;;5031014;28;20044;-48
2021/11/12 09:49:52;;;;;;;7.78;6.15;;;22.80;35.00;;;;;;5020056;28;20040;-54
2021/11/12 09:52:18;;;;;;;9.55;6.47;;;22.80;35.00;;;;;;5023053;28;20115;-46
2021/11/12 09:54:45;;;;;;;8.10;6.53;;;22.80;35.00;;;;;;5027240;28;20045;-49
2021/11/12 09:57:11;;;;;;;7.53;5.90;;;22.70;34.90;;;;;;5018101;28;20029;-50
2021/11/12 09:59:37;;;;;;;7.55;5.82;;;22.70;34.90;;;;;;5022050;28;20048;-49
2021/11/12 10:02:05;;;;;;;7.38;6.10;;;22.60;34.80;;;;;;5026477;28;20340;-51
2021/11/12 10:04:33;;;;;;;7.68;6.00;;;22.60;34.80;;;;;;5027075;28;20045;-47
2021/11/12 10:07:00;;;;;;;9.25;6.32;;;22.60;34.80;;;;;;5022509;28;20029;-47
2021/11/12 10:09:26;;;;;;;7.25;6.10;;;22.60;34.80;;;;;;5018756;28;20037;-51
2021/11/12 10:11:55;;;;;;;7.68;5.75;;;22.60;34.80;;;;;;5021852;28;20037;-54
2021/11/12 10:17:07;;;;;;;6.75;5.38;;;22.60;34.60;;;;;;5026834;28;20126;-47
2021/11/12 10:19:51;;;;;;;7.07;6.00;;;22.60;34.70;;;;;;5031429;28;20037;-50
2021/11/12 10:22:21;;;;;;;6.67;5.43;;;22.50;34.50;;;;;;5023455;28;20049;-53
2021/11/12 10:24:48;;;;;;;7.63;6.00;;;22.50;34.60;;;;;;5031753;28;20025;-47
2021/11/12 10:27:19;;;;;;;7.47;6.00;;;22.50;34.60;;;;;;5022976;28;20026;-51
2021/11/12 10:29:46;;;;;;;7.82;5.80;;;22.50;34.50;;;;;;5024062;28;20479;-54
2021/11/12 10:32:18;;;;;;;6.78;5.43;;;22.50;34.50;;;;;;5026695;28;20422;-49
2021/11/12 10:34:46;;;;;;;7.30;5.82;;;22.50;35.10;;;;;;5025950;28;20047;-50
2021/11/12 10:37:21;;;;;;;9.02;6.07;;;22.50;34.70;;;;;;5029068;28;20461;-51
2021/11/12 10:39:57;;;;;;;7.53;5.88;;;22.50;35.00;;;;;;5015319;28;20046;-50
2021/11/12 10:42:27;;;;;;;9.77;7.18;;;22.50;35.30;;;;;;5024331;28;20080;-51
2021/11/12 10:44:59;;;;;;;8.15;6.30;;;22.50;35.50;;;;;;5018612;28;20388;-53
2021/11/12 10:47:28;;;;;;;8.63;6.80;;;22.60;35.60;;;;;;5021398;28;20038;-54
2021/11/12 10:50:03;;;;;;;8.48;6.70;;;22.50;35.80;;;;;;5025550;28;20029;-51
2021/11/12 10:52:30;;;;;;;10.18;6.88;;;22.60;36.10;;;;;;5028387;28;20033;-48
2021/11/12 10:55:10;;;;;;;10.80;7.70;;;22.60;36.20;;;;;;5022826;28;20049;-48
2021/11/12 10:57:45;;;;;;;10.68;7.38;;;22.60;36.20;;;;;;5024709;28;20140;-49
2021/11/12 11:00:20;;;;;;;10.05;6.75;;;22.60;36.20;;;;;;5027982;28;20045;-52
2021/11/12 11:02:53;;;;;;;11.20;7.25;;;22.60;36.20;;;;;;5032612;28;20337;-52
2021/11/12 11:05:25;;;;;;;12.55;6.63;;;22.60;36.20;;;;;;5020281;28;20124;-48
2021/11/12 11:08:00;;;;;;;11.30;6.93;;;22.60;36.10;;;;;;5028611;28;20108;-48
2021/11/12 11:10:35;;;;;;;8.90;6.47;;;22.60;36.00;;;;;;5027210;28;20447;-53
2021/11/12 11:13:13;;;;;;;8.50;6.38;;;22.60;35.90;;;;;;5022415;28;20053;-53
2021/11/12 11:15:45;;;;;;;9.07;6.88;;;22.60;35.80;;;;;;5020704;28;20034;-56
2021/11/12 11:18:41;;;;;;;9.25;6.55;;;22.60;35.90;;;;;;5022784;28;20034;-54
2021/11/12 11:21:24;;;;;;;11.98;7.10;;;22.50;36.10;;;;;;5021919;28;20033;-47
2021/11/12 11:23:58;;;;;;;12.20;7.18;;;22.60;36.30;;;;;;5024684;28;20029;-49
2021/11/12 11:26:48;;;;;;;9.45;6.65;;;22.60;36.30;;;;;;5029343;28;20037;-51
2021/11/12 11:29:17;;;;;;;13.02;7.20;;;22.70;36.40;;;;;;5019976;28;20038;-59
2021/11/12 11:31:44;;;;;;;9.95;7.00;;;22.60;36.40;;;;;;5028769;28;20098;-48
2021/11/12 11:34:11;;;;;;;9.52;6.80;;;22.60;36.40;;;;;;5017656;28;20064;-50
2021/11/12 11:36:41;;;;;;;9.75;6.55;;;22.60;36.40;;;;;;5022961;28;20049;-54
2021/11/12 11:39:10;;;;;;;12.63;6.72;;;22.70;36.40;;;;;;5023493;28;20060;-54
2021/11/12 11:41:36;;;;;;;7.55;5.78;;;22.70;36.40;;;;;;5019349;28;20037;-56
2021/11/12 11:44:05;;;;;;;7.05;4.90;;;22.70;36.50;;;;;;5023542;28;20033;-56
2021/11/12 11:46:38;;;;;;;6.82;4.95;;;22.80;36.60;;;;;;5027437;28;20140;-45
2021/11/12 11:49:14;;;;;;;5.43;4.57;;;22.90;36.70;;;;;;5019233;28;20499;-50
2021/11/12 11:51:52;;;;;;;4.95;4.20;;;23.00;36.70;;;;;;5023794;28;20488;-48
2021/11/12 11:54:20;;;;;;;6.25;4.95;;;23.00;36.70;;;;;;5023985;28;20120;-55
2021/11/12 11:56:48;;;;;;;5.18;4.15;;;23.10;36.70;;;;;;5022904;28;20032;-54
2021/11/12 11:59:25;;;;;;;7.10;4.10;;;23.20;36.70;;;;;;5031042;28;20056;-53
2021/11/12 12:01:53;;;;;;;4.78;4.00;;;23.20;36.60;;;;;;5025232;28;20433;-50
2021/11/12 12:04:19;;;;;;;6.57;3.72;;;23.30;36.60;;;;;;5029146;28;20021;-52
2021/11/12 12:07:04;;;;;;;5.80;4.13;;;23.30;36.50;;;;;;5019442;28;20456;-51
2021/11/12 12:09:48;;;;;;;;;;;23.40;36.50;;;;;;5031889;28;20036;-53
2021/11/12 12:12:34;;;;;;;5.40;3.80;;;23.30;37.10;;;;;;5029865;28;20000;-54
2021/11/12 12:15:05;;;;;;;4.28;3.50;;;23.40;36.50;;;;;;5025505;28;20030;-52
2021/11/12 12:17:40;;;;;;;5.85;4.20;;;23.40;36.50;;;;;;5020797;28;20037;-58
2021/11/12 13:25:51;;;;;;;5.43;4.15;;;24.40;35.60;;;;;;5015540;28;20476;-55
2021/11/12 13:28:19;;;;;;;4.45;3.58;;;24.30;34.90;;;;;;5034243;28;20044;-52
2021/11/12 13:30:44;;;;;;;4.47;3.90;;;24.30;34.90;;;;;;5034648;28;20056;-53
2021/11/12 13:33:29;;;;;;;4.88;3.97;;;24.20;34.80;;;;;;5035199;28;20448;-52
2021/11/12 13:35:56;;;;;;;;;;;24.20;34.70;;;;;;5020153;28;20052;-58
2021/11/12 13:38:22;;;;;;;3.70;2.92;;;24.10;34.90;;;;;;5025488;28;19908;-47
2021/11/12 13:40:48;;;;;;;6.95;3.80;;;24.10;35.00;;;;;;5027070;28;20399;-52
2021/11/12 13:43:25;;;;;;;5.47;3.67;;;24.10;35.00;;;;;;5035203;28;20137;-52
2021/11/12 13:45:59;;;;;;;4.60;3.30;;;24.10;34.90;;;;;;5020370;28;20038;-46
2021/11/12 13:48:26;;;;;;;4.18;3.35;;;24.10;35.00;;;;;;5033600;28;20334;-50
2021/11/12 13:51:01;;;;;;;5.18;3.85;;;24.10;35.00;;;;;;5032546;28;20112;-51
2021/11/12 13:53:32;;;;;;;4.15;3.70;;;24.00;34.90;;;;;;5027483;28;20048;-53
2021/11/12 13:56:01;;;;;;;5.13;3.35;;;24.00;34.80;;;;;;5034909;28;20034;-51
2021/11/12 13:58:27;;;;;;;4.32;3.55;;;24.00;34.80;;;;;;5028255;28;20060;-53
2021/11/12 14:00:55;;;;;;;5.22;3.90;;;24.00;34.70;;;;;;5021277;28;20373;-51
2021/11/12 14:03:40;;;;;;;4.50;3.88;;;23.90;34.70;;;;;;5024918;28;20036;-51
2021/11/12 14:06:09;;;;;;;3.88;3.35;;;23.90;34.60;;;;;;5032461;28;20116;-49
2021/11/12 14:08:42;;;;;;;6.03;3.47;;;23.90;34.70;;;;;;5022898;28;20022;-50
2021/11/12 14:11:26;;;;;;;6.93;4.30;;;23.90;34.60;;;;;;5024324;28;20034;-49
2021/11/12 14:13:58;;;;;;;5.00;4.47;;;23.90;34.50;;;;;;5019156;28;20022;-49
2021/11/12 14:16:33;;;;;;;4.88;3.78;;;23.80;34.50;;;;;;5018438;28;20103;-53
2021/11/12 14:54:38;;;;;;;5.38;4.10;;;23.50;34.50;;;;;;5036495;28;20494;-50
2021/11/12 14:57:30;;;;;;;5.10;3.85;;;23.50;34.50;;;;;;5036117;28;20025;-55
2021/11/12 14:59:56;;;;;;;4.80;3.85;;;23.50;34.40;;;;;;5022608;28;20049;-52
2021/11/12 15:02:22;;;;;;;5.72;5.10;;;23.50;34.40;;;;;;5029398;28;20360;-52
2021/11/12 15:04:48;;;;;;;6.95;5.70;;;23.40;34.20;;;;;;5029254;28;20038;-52
2021/11/12 15:07:20;;;;;;;6.28;5.68;;;23.40;34.10;;;;;;5028238;28;20042;-51
2021/11/12 15:09:48;;;;;;;7.20;5.97;;;23.30;34.00;;;;;;5017537;28;20125;-50
2021/11/12 15:12:14;;;;;;;6.03;5.38;;;23.20;34.00;;;;;;5023366;28;20084;-50
2021/11/12 15:14:49;;;;;;;6.55;5.85;;;23.20;34.00;;;;;;5018632;28;20034;-50
2021/11/12 15:17:14;;;;;;;5.35;4.82;;;23.20;34.00;;;;;;5017358;28;20481;-53
2021/11/12 15:19:43;;;;;;;6.68;5.63;;;23.20;34.00;;;;;;5018292;28;20034;-46
2021/11/12 15:30:08;;;;;;;5.40;4.90;;;23.10;33.70;;;;;;5019018;28;20045;-50
2021/11/12 15:32:38;;;;;;;6.00;5.38;;;23.10;33.80;;;;;;5023050;28;20094;-52
2021/11/12 15:35:17;;;;;;;5.78;5.15;;;23.10;33.80;;;;;;5021156;28;20095;-50
2021/11/12 15:38:04;;;;;;;5.57;5.07;;;23.10;33.70;;;;;;5028006;28;20155;-46
2021/11/12 15:40:35;;;;;;;6.32;5.68;;;23.00;33.70;;;;;;5022393;28;20472;-52
2021/11/12 15:48:15;;;;;;;6.55;5.95;;;23.00;33.80;;;;;;5031157;28;20365;-50
2021/11/12 15:53:23;;;;;;;6.53;5.78;;;23.00;33.90;;;;;;5035614;28;20052;-51
2021/11/12 16:14:27;;;;;;;6.95;6.10;;;22.90;34.00;;;;;;5033085;28;20048;-52
2021/11/12 16:17:17;;;;;;;6.53;5.80;;;22.90;33.90;;;;;;5016477;28;20449;-52
2021/11/12 16:19:50;;;;;;;7.63;5.60;;;22.90;33.80;;;;;;5034317;28;20124;-48
2021/11/12 16:27:19;;;;;;;6.47;5.35;;;22.90;33.80;;;;;;5029616;28;20045;-48
2021/11/12 16:29:49;;;;;;;6.43;5.55;;;22.90;33.80;;;;;;5032685;28;20037;-50
2021/11/12 16:32:30;;;;;;;5.55;4.95;;;22.90;33.80;;;;;;5030897;28;20033;-47
2021/11/12 16:35:00;;;;;;;6.05;4.88;;;22.90;33.80;;;;;;5020432;28;21677;-48
2021/11/12 16:37:28;;;;;;;5.50;4.85;;;22.90;33.90;;;;;;5033860;28;20034;-46
2021/11/12 16:40:01;;;;;;;5.30;4.80;;;22.90;33.90;;;;;;5023330;28;20041;-47
2021/11/12 16:42:40;;;;;;;5.40;4.55;;;22.90;33.90;;;;;;5016441;28;20104;-49
2021/11/12 16:45:18;;;;;;;5.35;4.57;;;22.90;34.00;;;;;;5026695;28;20029;-47
2021/11/12 16:50:47;;;;;;;4.82;3.95;;;22.90;34.00;;;;;;5030447;28;20109;-49
2021/11/12 16:53:55;;;;;;;5.40;4.00;;;22.90;34.00;;;;;;5018221;28;20030;-52
2021/11/12 17:15:17;;;;;;;5.20;3.83;;;22.80;34.30;;;;;;4981786;28;20064;-49
2021/11/12 17:17:55;;;;;;;4.80;3.70;;;22.80;34.40;;;;;;4995185;28;20033;-49
2021/11/12 17:45:17;;;;;;;3.92;2.92;;;22.70;34.80;;;;;;5014815;28;20041;-50
2021/11/12 17:47:45;;;;;;;3.78;3.10;;;22.70;34.50;;;;;;5016595;28;20040;-52
2021/11/12 18:03:46;;;;;;;3.60;3.15;;;22.80;34.40;;;;;;5016380;28;20441;-49
2021/11/12 18:06:18;;;;;;;4.07;3.25;;;22.80;34.50;;;;;;5018074;28;20088;-47
2021/11/12 18:14:26;;;;;;;4.72;3.17;;;22.80;34.60;;;;;;5014640;28;20034;-48
2021/11/12 18:22:13;;;;;;;3.63;3.00;;;22.80;34.70;;;;;;5014188;28;20048;-48
2021/11/12 21:45:49;;;;;;;3.63;2.20;;;21.40;38.80;;;;;;5019971;28;20041;-49
2021/11/12 21:48:15;;;;;;;2.47;2.08;;;21.40;38.80;;;;;;5023186;28;20049;-54
2021/11/12 21:50:42;;;;;;;3.83;2.28;;;21.40;38.80;;;;;;5017359;28;20123;-52
2021/11/12 21:53:08;;;;;;;2.42;1.98;;;21.40;38.90;;;;;;5015311;28;20026;-48
2021/11/12 21:55:36;;;;;;;2.85;2.20;;;21.40;38.90;;;;;;5016471;28;20108;-46
2021/11/12 21:58:02;;;;;;;2.55;1.98;;;21.40;38.90;;;;;;5034749;28;20033;-49
2021/11/12 22:00:30;;;;;;;2.58;2.10;;;21.40;38.90;;;;;;5033076;28;20037;-47
2021/11/12 22:02:56;;;;;;;3.03;2.35;;;21.40;38.90;;;;;;5035095;28;20044;-50
2021/11/12 22:05:25;;;;;;;2.95;2.28;;;21.40;38.90;;;;;;5016566;28;20064;-51
2021/11/12 22:07:51;;;;;;;2.88;2.08;;;21.40;39.00;;;;;;5018744;28;20060;-48
2021/11/12 22:10:17;;;;;;;2.58;2.13;;;21.40;39.00;;;;;;5031940;28;20518;-49
2021/11/12 22:12:44;;;;;;;2.47;2.05;;;21.40;39.00;;;;;;5029781;28;20040;-50
2021/11/12 22:15:10;;;;;;;3.42;2.42;;;21.40;39.10;;;;;;5024249;28;20032;-47
2021/11/12 22:17:36;;;;;;;2.40;2.10;;;21.40;39.10;;;;;;5015139;28;20030;-49
2021/11/12 22:20:06;;;;;;;3.25;2.60;;;21.30;39.10;;;;;;5015331;28;20037;-52
2021/11/12 22:22:32;;;;;;;2.88;2.35;;;21.40;39.20;;;;;;5017814;28;20049;-47
2021/11/12 22:24:58;;;;;;;2.53;1.92;;;21.30;39.20;;;;;;5016287;28;20087;-48
2021/11/12 22:27:28;;;;;;;3.33;2.22;;;21.30;39.90;;;;;;5033918;28;20093;-49
2021/11/12 22:29:53;;;;;;;3.50;2.53;;;21.30;39.30;;;;;;5028911;28;20054;-49
2021/11/12 22:32:21;;;;;;;2.75;2.20;;;21.30;39.30;;;;;;5033802;28;20072;-46
2021/11/12 22:34:49;;;;;;;2.95;2.40;;;21.30;39.40;;;;;;5034995;28;20337;-48
2021/11/12 22:37:16;;;;;;;3.33;2.13;;;21.30;39.40;;;;;;5020791;28;20345;-46
2021/11/12 22:39:42;;;;;;;2.55;2.10;;;21.30;39.40;;;;;;5018250;28;20037;-48
2021/11/12 22:42:10;;;;;;;3.45;2.40;;;21.30;39.50;;;;;;5019320;28;20034;-47
2021/11/12 22:44:36;;;;;;;2.60;2.03;;;21.30;39.40;;;;;;5022785;28;20025;-45
2021/11/12 22:47:02;;;;;;;2.50;2.30;;;21.30;39.50;;;;;;5018653;28;20361;-47
2021/11/12 22:49:28;;;;;;;3.75;2.70;;;21.30;39.50;;;;;;5018122;28;20455;-49
2021/11/12 22:51:53;;;;;;;2.83;2.13;;;21.30;39.50;;;;;;5024386;28;20021;-47
2021/11/12 22:54:19;;;;;;;2.90;2.08;;;21.30;39.60;;;;;;5019047;28;20053;-47
2021/11/12 22:56:49;;;;;;;2.55;2.03;;;21.20;39.50;;;;;;5019656;28;20057;-50
2021/11/12 22:59:14;;;;;;;3.30;2.42;;;21.20;39.60;;;;;;5034913;28;20420;-46
2021/11/12 23:01:40;;;;;;;2.53;2.00;;;21.20;39.60;;;;;;5030998;28;20352;-48
2021/11/12 23:04:06;;;;;;;3.50;2.42;;;21.20;39.70;;;;;;5034097;28;20034;-50
2021/11/12 23:06:32;;;;;;;4.00;2.72;;;21.20;39.70;;;;;;5018036;28;20224;-49